sensor_id;sensor_type;location;lat;lon;timestamp;P1;durP1;ratioP1;P2;durP2;ratioP2
14292;SDS011;62290;59.420;17.842;2022-08-05T00:02:27;6.30;;;4.15;;
14292;SDS011;62290;59.420;17.842;2022-08-05T00:04:56;5.15;;;4.38;;
14292;SDS011;62290;59.420;17.842;2022-08-05T00:07:24;6.50;;;4.53;;
14292;SDS011;62290;59.420;17.842;2022-08-05T00:10:12;6.55;;;3.92;;
14292;SDS011;62290;59.420;17.842;2022-08-05T00:12:40;5.97;;;4.18;;
14292;SDS011;62290;59.420;17.842;2022-08-05T00:15:22;5.28;;;3.80;;
14292;SDS011;62290;59.420;17.842;2022-08-05T00:18:12;5.63;;;4.07;;
14292;SDS011;62290;59.420;17.842;2022-08-05T00:20:48;6.55;;;4.30;;
14292;SDS011;62290;59.420;17.842;2022-08-05T00:23:16;4.50;;;4.07;;
14292;SDS011;62290;59.420;17.842;2022-08-05T00:26:06;6.55;;;4.15;;
14292;SDS011;62290;59.420;17.842;2022-08-05T00:28:34;5.00;;;4.35;;
14292;SDS011;62290;59.420;17.842;2022-08-05T00:31:05;5.25;;;4.40;;
14292;SDS011;62290;59.420;17.842;2022-08-05T00:33:37;5.78;;;4.45;;
14292;SDS011;62290;59.420;17.842;2022-08-05T00:36:25;5.85;;;4.47;;
14292;SDS011;62290;59.420;17.842;2022-08-05T00:39:13;5.72;;;4.30;;
14292;SDS011;62290;59.420;17.842;2022-08-05T00:41:44;6.45;;;4.53;;
14292;SDS011;62290;59.420;17.842;2022-08-05T00:44:21;6.47;;;4.57;;
14292;SDS011;62290;59.420;17.842;2022-08-05T00:46:57;4.97;;;4.15;;
14292;SDS011;62290;59.420;17.842;2022-08-05T00:49:32;4.57;;;4.15;;
14292;SDS011;62290;59.420;17.842;2022-08-05T00:52:16;7.13;;;3.95;;
14292;SDS011;62290;59.420;17.842;2022-08-05T00:54:54;7.28;;;4.65;;
14292;SDS011;62290;59.420;17.842;2022-08-05T00:57:23;9.43;;;4.57;;
14292;SDS011;62290;59.420;17.842;2022-08-05T01:00:12;6.10;;;4.40;;
14292;SDS011;62290;59.420;17.842;2022-08-05T01:02:42;5.88;;;4.43;;
14292;SDS011;62290;59.420;17.842;2022-08-05T01:05:11;7.40;;;4.65;;
14292;SDS011;62290;59.420;17.842;2022-08-05T01:07:40;6.85;;;4.28;;
14292;SDS011;62290;59.420;17.842;2022-08-05T01:10:29;7.22;;;5.03;;
14292;SDS011;62290;59.420;17.842;2022-08-05T01:13:05;10.02;;;4.90;;
14292;SDS011;62290;59.420;17.842;2022-08-05T01:15:54;6.07;;;4.78;;
14292;SDS011;62290;59.420;17.842;2022-08-05T01:18:27;5.80;;;4.25;;
14292;SDS011;62290;59.420;17.842;2022-08-05T01:21:09;7.07;;;4.88;;
14292;SDS011;62290;59.420;17.842;2022-08-05T01:23:56;7.00;;;5.05;;
14292;SDS011;62290;59.420;17.842;2022-08-05T01:26:45;5.78;;;4.63;;
14292;SDS011;62290;59.420;17.842;2022-08-05T01:29:26;5.50;;;4.55;;
14292;SDS011;62290;59.420;17.842;2022-08-05T01:32:01;6.25;;;4.72;;
14292;SDS011;62290;59.420;17.842;2022-08-05T01:34:44;11.02;;;5.72;;
14292;SDS011;62290;59.420;17.842;2022-08-05T01:37:16;5.95;;;4.43;;
14292;SDS011;62290;59.420;17.842;2022-08-05T01:39:51;7.72;;;5.03;;
14292;SDS011;62290;59.420;17.842;2022-08-05T01:42:24;8.57;;;5.38;;
14292;SDS011;62290;59.420;17.842;2022-08-05T01:44:56;7.70;;;5.07;;
14292;SDS011;62290;59.420;17.842;2022-08-05T01:47:28;6.13;;;5.13;;
14292;SDS011;62290;59.420;17.842;2022-08-05T01:50:10;5.50;;;5.00;;
14292;SDS011;62290;59.420;17.842;2022-08-05T01:52:43;10.40;;;5.15;;
14292;SDS011;62290;59.420;17.842;2022-08-05T01:55:15;9.13;;;4.72;;
14292;SDS011;62290;59.420;17.842;2022-08-05T01:57:47;6.10;;;4.80;;
14292;SDS011;62290;59.420;17.842;2022-08-05T02:00:43;5.63;;;4.88;;
14292;SDS011;62290;59.420;17.842;2022-08-05T02:03:19;6.90;;;5.15;;
14292;SDS011;62290;59.420;17.842;2022-08-05T02:05:59;5.25;;;4.78;;
14292;SDS011;62290;59.420;17.842;2022-08-05T02:08:48;5.90;;;4.72;;
14292;SDS011;62290;59.420;17.842;2022-08-05T02:11:24;6.57;;;5.13;;
14292;SDS011;62290;59.420;17.842;2022-08-05T02:13:59;6.63;;;4.78;;
14292;SDS011;62290;59.420;17.842;2022-08-05T02:16:33;7.25;;;5.57;;
14292;SDS011;62290;59.420;17.842;2022-08-05T02:19:11;6.80;;;4.88;;
14292;SDS011;62290;59.420;17.842;2022-08-05T02:21:50;7.65;;;5.00;;
14292;SDS011;62290;59.420;17.842;2022-08-05T02:24:26;7.03;;;5.00;;
14292;SDS011;62290;59.420;17.842;2022-08-05T02:27:00;6.93;;;4.90;;
14292;SDS011;62290;59.420;17.842;2022-08-05T02:29:35;8.38;;;5.20;;
14292;SDS011;62290;59.420;17.842;2022-08-05T02:32:30;7.03;;;4.85;;
14292;SDS011;62290;59.420;17.842;2022-08-05T02:35:02;5.93;;;5.15;;
14292;SDS011;62290;59.420;17.842;2022-08-05T02:37:39;8.63;;;5.45;;
14292;SDS011;62290;59.420;17.842;2022-08-05T02:40:19;5.07;;;4.65;;
14292;SDS011;62290;59.420;17.842;2022-08-05T02:42:49;6.90;;;5.40;;
14292;SDS011;62290;59.420;17.842;2022-08-05T02:45:20;6.07;;;5.22;;
14292;SDS011;62290;59.420;17.842;2022-08-05T02:47:52;6.13;;;5.30;;
14292;SDS011;62290;59.420;17.842;2022-08-05T02:50:38;7.63;;;5.03;;
14292;SDS011;62290;59.420;17.842;2022-08-05T02:53:09;6.57;;;4.93;;
14292;SDS011;62290;59.420;17.842;2022-08-05T02:55:44;5.82;;;5.10;;
14292;SDS011;62290;59.420;17.842;2022-08-05T02:58:20;5.63;;;5.05;;
14292;SDS011;62290;59.420;17.842;2022-08-05T03:00:53;8.45;;;5.35;;
14292;SDS011;62290;59.420;17.842;2022-08-05T03:03:28;7.93;;;5.43;;
14292;SDS011;62290;59.420;17.842;2022-08-05T03:05:59;5.68;;;5.13;;
14292;SDS011;62290;59.420;17.842;2022-08-05T03:08:49;5.93;;;5.13;;
14292;SDS011;62290;59.420;17.842;2022-08-05T03:11:19;7.25;;;5.75;;
14292;SDS011;62290;59.420;17.842;2022-08-05T03:14:09;6.78;;;5.07;;
14292;SDS011;62290;59.420;17.842;2022-08-05T03:16:39;9.88;;;6.05;;
14292;SDS011;62290;59.420;17.842;2022-08-05T03:19:08;5.78;;;5.18;;
14292;SDS011;62290;59.420;17.842;2022-08-05T03:21:45;5.57;;;5.07;;
14292;SDS011;62290;59.420;17.842;2022-08-05T03:24:15;6.35;;;5.10;;
14292;SDS011;62290;59.420;17.842;2022-08-05T03:26:55;7.63;;;5.45;;
14292;SDS011;62290;59.420;17.842;2022-08-05T03:29:24;5.78;;;5.28;;
14292;SDS011;62290;59.420;17.842;2022-08-05T03:32:12;8.55;;;5.07;;
14292;SDS011;62290;59.420;17.842;2022-08-05T03:34:43;6.68;;;5.78;;
14292;SDS011;62290;59.420;17.842;2022-08-05T03:37:17;6.20;;;5.60;;
14292;SDS011;62290;59.420;17.842;2022-08-05T03:39:55;6.65;;;5.65;;
14292;SDS011;62290;59.420;17.842;2022-08-05T03:42:27;6.93;;;5.55;;
14292;SDS011;62290;59.420;17.842;2022-08-05T03:44:58;11.27;;;5.70;;
14292;SDS011;62290;59.420;17.842;2022-08-05T03:47:46;7.65;;;5.40;;
14292;SDS011;62290;59.420;17.842;2022-08-05T03:50:16;7.88;;;5.60;;
14292;SDS011;62290;59.420;17.842;2022-08-05T03:52:47;6.28;;;5.65;;
14292;SDS011;62290;59.420;17.842;2022-08-05T03:55:41;6.22;;;5.60;;
14292;SDS011;62290;59.420;17.842;2022-08-05T03:58:33;6.60;;;5.95;;
14292;SDS011;62290;59.420;17.842;2022-08-05T04:01:06;8.23;;;5.43;;
14292;SDS011;62290;59.420;17.842;2022-08-05T04:03:38;8.68;;;5.90;;
14292;SDS011;62290;59.420;17.842;2022-08-05T04:06:33;9.40;;;6.25;;
14292;SDS011;62290;59.420;17.842;2022-08-05T04:09:02;7.10;;;6.40;;
14292;SDS011;62290;59.420;17.842;2022-08-05T04:11:31;7.25;;;5.82;;
14292;SDS011;62290;59.420;17.842;2022-08-05T04:14:18;7.13;;;6.43;;
14292;SDS011;62290;59.420;17.842;2022-08-05T04:16:57;9.80;;;5.75;;
14292;SDS011;62290;59.420;17.842;2022-08-05T04:19:28;6.85;;;5.88;;
14292;SDS011;62290;59.420;17.842;2022-08-05T04:21:58;6.20;;;5.60;;
14292;SDS011;62290;59.420;17.842;2022-08-05T04:24:38;7.95;;;6.05;;
14292;SDS011;62290;59.420;17.842;2022-08-05T04:27:18;7.07;;;6.38;;
14292;SDS011;62290;59.420;17.842;2022-08-05T04:30:06;8.70;;;6.72;;
14292;SDS011;62290;59.420;17.842;2022-08-05T04:32:35;6.90;;;6.20;;
14292;SDS011;62290;59.420;17.842;2022-08-05T04:35:04;6.72;;;6.10;;
14292;SDS011;62290;59.420;17.842;2022-08-05T04:37:46;6.70;;;6.10;;
14292;SDS011;62290;59.420;17.842;2022-08-05T04:40:32;7.38;;;5.97;;
14292;SDS011;62290;59.420;17.842;2022-08-05T04:43:01;9.27;;;6.50;;
14292;SDS011;62290;59.420;17.842;2022-08-05T04:45:30;7.30;;;6.30;;
14292;SDS011;62290;59.420;17.842;2022-08-05T04:48:14;6.75;;;6.05;;
14292;SDS011;62290;59.420;17.842;2022-08-05T04:50:53;7.10;;;6.38;;
14292;SDS011;62290;59.420;17.842;2022-08-05T04:53:30;7.15;;;6.03;;
14292;SDS011;62290;59.420;17.842;2022-08-05T04:56:01;8.10;;;6.13;;
14292;SDS011;62290;59.420;17.842;2022-08-05T04:58:49;7.72;;;6.72;;
14292;SDS011;62290;59.420;17.842;2022-08-05T05:01:17;10.32;;;6.75;;
14292;SDS011;62290;59.420;17.842;2022-08-05T05:04:05;10.23;;;7.05;;
14292;SDS011;62290;59.420;17.842;2022-08-05T05:06:35;9.20;;;7.03;;
14292;SDS011;62290;59.420;17.842;2022-08-05T05:09:16;9.80;;;7.22;;
14292;SDS011;62290;59.420;17.842;2022-08-05T05:11:44;9.63;;;6.80;;
14292;SDS011;62290;59.420;17.842;2022-08-05T05:14:22;8.23;;;7.00;;
14292;SDS011;62290;59.420;17.842;2022-08-05T05:16:57;8.90;;;7.22;;
14292;SDS011;62290;59.420;17.842;2022-08-05T05:19:25;8.60;;;6.97;;
14292;SDS011;62290;59.420;17.842;2022-08-05T05:22:05;7.82;;;6.88;;
14292;SDS011;62290;59.420;17.842;2022-08-05T05:24:51;9.45;;;6.80;;
14292;SDS011;62290;59.420;17.842;2022-08-05T05:27:23;8.68;;;7.03;;
14292;SDS011;62290;59.420;17.842;2022-08-05T05:30:12;9.10;;;6.78;;
14292;SDS011;62290;59.420;17.842;2022-08-05T05:32:41;8.05;;;6.97;;
14292;SDS011;62290;59.420;17.842;2022-08-05T05:35:11;9.48;;;7.22;;
14292;SDS011;62290;59.420;17.842;2022-08-05T05:37:45;8.93;;;7.85;;
14292;SDS011;62290;59.420;17.842;2022-08-05T05:40:29;13.02;;;7.10;;
14292;SDS011;62290;59.420;17.842;2022-08-05T05:42:59;11.85;;;7.30;;
14292;SDS011;62290;59.420;17.842;2022-08-05T05:45:27;8.20;;;7.07;;
14292;SDS011;62290;59.420;17.842;2022-08-05T05:47:56;7.78;;;6.85;;
14292;SDS011;62290;59.420;17.842;2022-08-05T05:50:32;13.77;;;7.70;;
14292;SDS011;62290;59.420;17.842;2022-08-05T05:53:09;9.77;;;7.40;;
14292;SDS011;62290;59.420;17.842;2022-08-05T05:55:48;11.85;;;7.63;;
14292;SDS011;62290;59.420;17.842;2022-08-05T05:58:28;10.50;;;7.32;;
14292;SDS011;62290;59.420;17.842;2022-08-05T06:00:58;8.45;;;7.30;;
14292;SDS011;62290;59.420;17.842;2022-08-05T06:03:38;11.32;;;8.23;;
14292;SDS011;62290;59.420;17.842;2022-08-05T06:06:27;8.88;;;6.60;;
14292;SDS011;62290;59.420;17.842;2022-08-05T06:08:59;8.75;;;7.85;;
14292;SDS011;62290;59.420;17.842;2022-08-05T06:11:30;9.02;;;7.63;;
14292;SDS011;62290;59.420;17.842;2022-08-05T06:13:59;8.35;;;7.40;;
14292;SDS011;62290;59.420;17.842;2022-08-05T06:16:31;10.27;;;7.00;;
14292;SDS011;62290;59.420;17.842;2022-08-05T06:19:03;10.00;;;7.35;;
14292;SDS011;62290;59.420;17.842;2022-08-05T06:21:34;8.68;;;7.40;;
14292;SDS011;62290;59.420;17.842;2022-08-05T06:24:07;9.10;;;7.25;;
14292;SDS011;62290;59.420;17.842;2022-08-05T06:26:39;8.10;;;6.97;;
14292;SDS011;62290;59.420;17.842;2022-08-05T06:29:18;7.43;;;6.70;;
14292;SDS011;62290;59.420;17.842;2022-08-05T06:32:06;9.25;;;6.55;;
14292;SDS011;62290;59.420;17.842;2022-08-05T06:34:54;7.70;;;6.97;;
14292;SDS011;62290;59.420;17.842;2022-08-05T06:37:24;8.07;;;7.28;;
14292;SDS011;62290;59.420;17.842;2022-08-05T06:40:13;10.50;;;7.05;;
14292;SDS011;62290;59.420;17.842;2022-08-05T06:42:49;8.38;;;6.40;;
14292;SDS011;62290;59.420;17.842;2022-08-05T06:45:18;8.05;;;6.30;;
14292;SDS011;62290;59.420;17.842;2022-08-05T06:48:07;6.38;;;5.78;;
14292;SDS011;62290;59.420;17.842;2022-08-05T06:50:56;6.85;;;6.15;;
14292;SDS011;62290;59.420;17.842;2022-08-05T06:53:25;10.07;;;7.13;;
14292;SDS011;62290;59.420;17.842;2022-08-05T06:55:55;6.72;;;6.10;;
14292;SDS011;62290;59.420;17.842;2022-08-05T06:58:25;6.63;;;6.03;;
14292;SDS011;62290;59.420;17.842;2022-08-05T07:01:02;8.95;;;6.10;;
14292;SDS011;62290;59.420;17.842;2022-08-05T07:03:32;6.55;;;5.95;;
14292;SDS011;62290;59.420;17.842;2022-08-05T07:06:01;7.07;;;6.13;;
14292;SDS011;62290;59.420;17.842;2022-08-05T07:08:40;6.60;;;5.95;;
14292;SDS011;62290;59.420;17.842;2022-08-05T07:11:17;7.82;;;6.10;;
14292;SDS011;62290;59.420;17.842;2022-08-05T07:13:49;8.15;;;6.32;;
14292;SDS011;62290;59.420;17.842;2022-08-05T07:16:54;8.23;;;6.18;;
14292;SDS011;62290;59.420;17.842;2022-08-05T07:19:46;7.60;;;5.80;;
14292;SDS011;62290;59.420;17.842;2022-08-05T07:22:34;12.40;;;5.40;;
14292;SDS011;62290;59.420;17.842;2022-08-05T07:25:03;5.80;;;5.30;;
14292;SDS011;62290;59.420;17.842;2022-08-05T07:27:50;7.60;;;5.63;;
14292;SDS011;62290;59.420;17.842;2022-08-05T07:30:29;6.28;;;4.45;;
14292;SDS011;62290;59.420;17.842;2022-08-05T07:33:00;5.85;;;5.20;;
14292;SDS011;62290;59.420;17.842;2022-08-05T07:35:30;7.93;;;4.68;;
14292;SDS011;62290;59.420;17.842;2022-08-05T07:38:19;5.28;;;4.78;;
14292;SDS011;62290;59.420;17.842;2022-08-05T07:41:00;4.97;;;4.38;;
14292;SDS011;62290;59.420;17.842;2022-08-05T07:43:49;6.47;;;4.57;;
14292;SDS011;62290;59.420;17.842;2022-08-05T07:46:18;4.28;;;3.88;;
14292;SDS011;62290;59.420;17.842;2022-08-05T07:48:51;4.35;;;3.97;;
14292;SDS011;62290;59.420;17.842;2022-08-05T07:51:34;4.68;;;4.15;;
14292;SDS011;62290;59.420;17.842;2022-08-05T07:54:19;5.40;;;4.50;;
14292;SDS011;62290;59.420;17.842;2022-08-05T07:57:04;5.90;;;4.50;;
14292;SDS011;62290;59.420;17.842;2022-08-05T07:59:52;5.03;;;4.53;;
14292;SDS011;62290;59.420;17.842;2022-08-05T08:02:25;5.07;;;3.60;;
14292;SDS011;62290;59.420;17.842;2022-08-05T08:05:14;4.13;;;3.72;;
14292;SDS011;62290;59.420;17.842;2022-08-05T08:07:42;4.65;;;3.80;;
14292;SDS011;62290;59.420;17.842;2022-08-05T08:10:26;4.40;;;4.00;;
14292;SDS011;62290;59.420;17.842;2022-08-05T08:12:55;5.15;;;4.03;;
14292;SDS011;62290;59.420;17.842;2022-08-05T08:15:24;4.20;;;3.88;;
14292;SDS011;62290;59.420;17.842;2022-08-05T08:18:13;3.80;;;3.50;;
14292;SDS011;62290;59.420;17.842;2022-08-05T08:20:46;3.90;;;3.58;;
14292;SDS011;62290;59.420;17.842;2022-08-05T08:23:29;4.70;;;4.07;;
14292;SDS011;62290;59.420;17.842;2022-08-05T08:26:17;4.85;;;4.03;;
14292;SDS011;62290;59.420;17.842;2022-08-05T08:28:55;3.78;;;3.47;;
14292;SDS011;62290;59.420;17.842;2022-08-05T08:31:44;4.57;;;4.18;;
14292;SDS011;62290;59.420;17.842;2022-08-05T08:34:15;3.80;;;3.50;;
14292;SDS011;62290;59.420;17.842;2022-08-05T08:36:44;5.82;;;3.97;;
14292;SDS011;62290;59.420;17.842;2022-08-05T08:39:21;4.40;;;4.10;;
14292;SDS011;62290;59.420;17.842;2022-08-05T08:41:50;4.72;;;4.25;;
14292;SDS011;62290;59.420;17.842;2022-08-05T08:44:28;4.82;;;4.35;;
14292;SDS011;62290;59.420;17.842;2022-08-05T08:47:17;5.80;;;3.88;;
14292;SDS011;62290;59.420;17.842;2022-08-05T08:50:14;5.85;;;4.57;;
14292;SDS011;62290;59.420;17.842;2022-08-05T08:53:05;4.78;;;4.38;;
14292;SDS011;62290;59.420;17.842;2022-08-05T08:55:38;4.22;;;3.83;;
14292;SDS011;62290;59.420;17.842;2022-08-05T08:58:26;6.82;;;4.28;;
14292;SDS011;62290;59.420;17.842;2022-08-05T09:01:12;4.53;;;4.13;;
14292;SDS011;62290;59.420;17.842;2022-08-05T09:03:43;6.28;;;4.30;;
14292;SDS011;62290;59.420;17.842;2022-08-05T09:06:19;4.18;;;3.85;;
14292;SDS011;62290;59.420;17.842;2022-08-05T09:08:56;4.55;;;4.10;;
14292;SDS011;62290;59.420;17.842;2022-08-05T09:11:25;6.30;;;4.38;;
14292;SDS011;62290;59.420;17.842;2022-08-05T09:14:13;6.60;;;4.05;;
14292;SDS011;62290;59.420;17.842;2022-08-05T09:17:03;4.57;;;4.00;;
14292;SDS011;62290;59.420;17.842;2022-08-05T09:19:34;4.28;;;3.88;;
14292;SDS011;62290;59.420;17.842;2022-08-05T09:22:24;5.20;;;3.67;;
14292;SDS011;62290;59.420;17.842;2022-08-05T09:24:58;4.03;;;3.72;;
14292;SDS011;62290;59.420;17.842;2022-08-05T09:27:47;3.97;;;3.65;;
14292;SDS011;62290;59.420;17.842;2022-08-05T09:30:32;4.30;;;3.90;;
14292;SDS011;62290;59.420;17.842;2022-08-05T09:33:02;4.53;;;3.60;;
14292;SDS011;62290;59.420;17.842;2022-08-05T09:35:30;3.85;;;3.47;;
14292;SDS011;62290;59.420;17.842;2022-08-05T09:38:00;3.78;;;3.45;;
14292;SDS011;62290;59.420;17.842;2022-08-05T09:40:48;4.40;;;3.83;;
14292;SDS011;62290;59.420;17.842;2022-08-05T09:43:26;3.80;;;3.50;;
14292;SDS011;62290;59.420;17.842;2022-08-05T09:46:23;4.68;;;3.70;;
14292;SDS011;62290;59.420;17.842;2022-08-05T09:48:54;3.10;;;2.80;;
14292;SDS011;62290;59.420;17.842;2022-08-05T09:51:34;4.85;;;3.63;;
14292;SDS011;62290;59.420;17.842;2022-08-05T09:54:07;3.88;;;3.38;;
14292;SDS011;62290;59.420;17.842;2022-08-05T09:56:37;3.28;;;3.00;;
14292;SDS011;62290;59.420;17.842;2022-08-05T09:59:17;3.67;;;3.33;;
14292;SDS011;62290;59.420;17.842;2022-08-05T10:01:45;3.70;;;3.35;;
14292;SDS011;62290;59.420;17.842;2022-08-05T10:04:30;3.55;;;3.17;;
14292;SDS011;62290;59.420;17.842;2022-08-05T10:07:04;3.97;;;3.47;;
14292;SDS011;62290;59.420;17.842;2022-08-05T10:09:55;3.30;;;3.00;;
14292;SDS011;62290;59.420;17.842;2022-08-05T10:12:41;4.05;;;3.42;;
14292;SDS011;62290;59.420;17.842;2022-08-05T10:15:22;4.68;;;3.50;;
14292;SDS011;62290;59.420;17.842;2022-08-05T10:18:03;3.30;;;3.00;;
14292;SDS011;62290;59.420;17.842;2022-08-05T10:20:37;4.70;;;3.40;;
14292;SDS011;62290;59.420;17.842;2022-08-05T10:23:10;5.18;;;3.08;;
14292;SDS011;62290;59.420;17.842;2022-08-05T10:26:02;4.00;;;3.25;;
14292;SDS011;62290;59.420;17.842;2022-08-05T10:28:39;4.85;;;3.17;;
14292;SDS011;62290;59.420;17.842;2022-08-05T10:31:10;4.85;;;2.97;;
14292;SDS011;62290;59.420;17.842;2022-08-05T10:34:00;3.63;;;3.20;;
14292;SDS011;62290;59.420;17.842;2022-08-05T10:36:28;4.15;;;3.70;;
14292;SDS011;62290;59.420;17.842;2022-08-05T10:38:58;2.97;;;2.78;;
14292;SDS011;62290;59.420;17.842;2022-08-05T10:41:45;3.53;;;3.15;;
14292;SDS011;62290;59.420;17.842;2022-08-05T10:44:26;3.28;;;2.97;;
14292;SDS011;62290;59.420;17.842;2022-08-05T10:46:56;2.97;;;2.78;;
14292;SDS011;62290;59.420;17.842;2022-08-05T10:49:24;3.30;;;3.00;;
14292;SDS011;62290;59.420;17.842;2022-08-05T10:51:59;3.30;;;3.00;;
14292;SDS011;62290;59.420;17.842;2022-08-05T10:54:47;3.80;;;3.50;;
14292;SDS011;62290;59.420;17.842;2022-08-05T10:57:30;4.07;;;3.20;;
14292;SDS011;62290;59.420;17.842;2022-08-05T11:00:08;3.15;;;2.92;;
14292;SDS011;62290;59.420;17.842;2022-08-05T11:06:01;3.10;;;2.85;;
14292;SDS011;62290;59.420;17.842;2022-08-05T11:18:25;3.80;;;2.85;;
14292;SDS011;62290;59.420;17.842;2022-08-05T11:20:57;3.58;;;3.28;;
14292;SDS011;62290;59.420;17.842;2022-08-05T11:23:31;4.57;;;3.42;;
14292;SDS011;62290;59.420;17.842;2022-08-05T11:26:22;3.15;;;2.95;;
14292;SDS011;62290;59.420;17.842;2022-08-05T11:28:57;4.50;;;3.13;;
14292;SDS011;62290;59.420;17.842;2022-08-05T11:31:41;5.80;;;3.50;;
14292;SDS011;62290;59.420;17.842;2022-08-05T11:34:35;3.80;;;3.50;;
14292;SDS011;62290;59.420;17.842;2022-08-05T11:40:55;4.32;;;3.92;;
14292;SDS011;62290;59.420;17.842;2022-08-05T11:43:41;4.72;;;4.32;;
14292;SDS011;62290;59.420;17.842;2022-08-05T11:46:31;4.55;;;4.15;;
14292;SDS011;62290;59.420;17.842;2022-08-05T11:49:02;4.30;;;3.95;;
14292;SDS011;62290;59.420;17.842;2022-08-05T11:51:33;4.00;;;3.70;;
14292;SDS011;62290;59.420;17.842;2022-08-05T11:54:19;4.85;;;4.32;;
14292;SDS011;62290;59.420;17.842;2022-08-05T11:57:00;3.95;;;3.65;;
14292;SDS011;62290;59.420;17.842;2022-08-05T11:59:49;5.30;;;4.15;;
14292;SDS011;62290;59.420;17.842;2022-08-05T12:02:22;6.68;;;4.03;;
14292;SDS011;62290;59.420;17.842;2022-08-05T12:04:59;6.03;;;3.90;;
14292;SDS011;62290;59.420;17.842;2022-08-05T12:07:33;6.20;;;4.13;;
14292;SDS011;62290;59.420;17.842;2022-08-05T12:10:24;5.63;;;5.03;;
14292;SDS011;62290;59.420;17.842;2022-08-05T12:13:11;4.85;;;4.35;;
14292;SDS011;62290;59.420;17.842;2022-08-05T12:15:53;5.60;;;5.07;;
14292;SDS011;62290;59.420;17.842;2022-08-05T12:18:26;4.78;;;4.38;;
14292;SDS011;62290;59.420;17.842;2022-08-05T12:21:09;4.72;;;4.32;;
14292;SDS011;62290;59.420;17.842;2022-08-05T12:23:50;6.80;;;4.88;;
14292;SDS011;62290;59.420;17.842;2022-08-05T12:26:18;6.45;;;4.70;;
14292;SDS011;62290;59.420;17.842;2022-08-05T12:28:49;6.97;;;5.05;;
14292;SDS011;62290;59.420;17.842;2022-08-05T12:31:17;6.60;;;5.25;;
14292;SDS011;62290;59.420;17.842;2022-08-05T12:33:59;7.38;;;5.55;;
14292;SDS011;62290;59.420;17.842;2022-08-05T12:36:29;5.72;;;4.93;;
14292;SDS011;62290;59.420;17.842;2022-08-05T12:38:58;8.93;;;5.53;;
14292;SDS011;62290;59.420;17.842;2022-08-05T12:41:31;5.63;;;5.13;;
14292;SDS011;62290;59.420;17.842;2022-08-05T12:44:09;5.88;;;5.32;;
14292;SDS011;62290;59.420;17.842;2022-08-05T12:46:50;7.22;;;5.10;;
14292;SDS011;62290;59.420;17.842;2022-08-05T12:49:20;6.55;;;5.90;;
14292;SDS011;62290;59.420;17.842;2022-08-05T12:51:55;7.40;;;5.68;;
14292;SDS011;62290;59.420;17.842;2022-08-05T12:54:44;9.82;;;8.20;;
14292;SDS011;62290;59.420;17.842;2022-08-05T12:57:15;10.48;;;8.55;;
14292;SDS011;62290;59.420;17.842;2022-08-05T12:59:49;9.60;;;7.90;;
14292;SDS011;62290;59.420;17.842;2022-08-05T13:02:38;8.18;;;7.47;;
14292;SDS011;62290;59.420;17.842;2022-08-05T13:05:07;8.27;;;7.47;;
14292;SDS011;62290;59.420;17.842;2022-08-05T13:07:41;13.40;;;8.70;;
14292;SDS011;62290;59.420;17.842;2022-08-05T13:10:30;10.05;;;7.97;;
14292;SDS011;62290;59.420;17.842;2022-08-05T13:12:59;10.30;;;6.15;;
14292;SDS011;62290;59.420;17.842;2022-08-05T13:15:28;6.53;;;5.93;;
14292;SDS011;62290;59.420;17.842;2022-08-05T13:18:07;7.32;;;6.38;;
14292;SDS011;62290;59.420;17.842;2022-08-05T13:20:36;10.63;;;6.35;;
14292;SDS011;62290;59.420;17.842;2022-08-05T13:23:07;7.80;;;5.63;;
14292;SDS011;62290;59.420;17.842;2022-08-05T13:25:35;4.95;;;3.88;;
14292;SDS011;62290;59.420;17.842;2022-08-05T13:28:23;5.05;;;3.92;;
14292;SDS011;62290;59.420;17.842;2022-08-05T13:30:51;3.92;;;3.40;;
14292;SDS011;62290;59.420;17.842;2022-08-05T13:33:19;4.13;;;3.03;;
14292;SDS011;62290;59.420;17.842;2022-08-05T13:36:07;4.32;;;3.20;;
14292;SDS011;62290;59.420;17.842;2022-08-05T13:38:36;4.15;;;3.30;;
14292;SDS011;62290;59.420;17.842;2022-08-05T13:41:07;4.13;;;3.55;;
14292;SDS011;62290;59.420;17.842;2022-08-05T13:43:36;4.82;;;3.88;;
14292;SDS011;62290;59.420;17.842;2022-08-05T13:46:11;3.10;;;2.80;;
14292;SDS011;62290;59.420;17.842;2022-08-05T13:48:40;3.17;;;2.88;;
14292;SDS011;62290;59.420;17.842;2022-08-05T13:51:25;5.60;;;3.85;;
14292;SDS011;62290;59.420;17.842;2022-08-05T13:54:06;4.82;;;3.00;;
14292;SDS011;62290;59.420;17.842;2022-08-05T13:56:38;4.53;;;2.60;;
14292;SDS011;62290;59.420;17.842;2022-08-05T13:59:16;3.40;;;2.70;;
14292;SDS011;62290;59.420;17.842;2022-08-05T14:01:49;2.55;;;2.35;;
14292;SDS011;62290;59.420;17.842;2022-08-05T14:04:28;3.83;;;2.90;;
14292;SDS011;62290;59.420;17.842;2022-08-05T14:07:20;3.78;;;2.70;;
14292;SDS011;62290;59.420;17.842;2022-08-05T14:10:13;3.53;;;2.60;;
14292;SDS011;62290;59.420;17.842;2022-08-05T14:12:53;4.55;;;2.80;;
14292;SDS011;62290;59.420;17.842;2022-08-05T14:15:22;5.22;;;2.58;;
14292;SDS011;62290;59.420;17.842;2022-08-05T14:18:10;6.75;;;2.30;;
14292;SDS011;62290;59.420;17.842;2022-08-05T14:20:44;2.58;;;2.38;;
14292;SDS011;62290;59.420;17.842;2022-08-05T14:23:13;2.33;;;2.10;;
14292;SDS011;62290;59.420;17.842;2022-08-05T14:25:53;2.70;;;1.98;;
14292;SDS011;62290;59.420;17.842;2022-08-05T14:28:24;2.55;;;1.70;;
14292;SDS011;62290;59.420;17.842;2022-08-05T14:30:56;2.17;;;1.80;;
14292;SDS011;62290;59.420;17.842;2022-08-05T14:33:27;3.00;;;1.70;;
14292;SDS011;62290;59.420;17.842;2022-08-05T14:36:16;2.42;;;2.00;;
14292;SDS011;62290;59.420;17.842;2022-08-05T14:38:47;2.78;;;2.28;;
14292;SDS011;62290;59.420;17.842;2022-08-05T14:41:16;3.03;;;2.10;;
14292;SDS011;62290;59.420;17.842;2022-08-05T14:43:44;2.63;;;2.20;;
14292;SDS011;62290;59.420;17.842;2022-08-05T14:46:32;3.95;;;2.25;;
14292;SDS011;62290;59.420;17.842;2022-08-05T14:49:02;3.38;;;2.42;;
14292;SDS011;62290;59.420;17.842;2022-08-05T14:51:33;2.65;;;2.45;;
14292;SDS011;62290;59.420;17.842;2022-08-05T14:54:03;3.40;;;3.10;;
14292;SDS011;62290;59.420;17.842;2022-08-05T14:56:53;3.33;;;3.00;;
14292;SDS011;62290;59.420;17.842;2022-08-05T14:59:21;4.85;;;3.25;;
14292;SDS011;62290;59.420;17.842;2022-08-05T15:01:49;3.65;;;3.33;;
14292;SDS011;62290;59.420;17.842;2022-08-05T15:04:19;4.90;;;3.67;;
14292;SDS011;62290;59.420;17.842;2022-08-05T15:06:48;3.75;;;3.42;;
14292;SDS011;62290;59.420;17.842;2022-08-05T15:09:18;4.38;;;3.97;;
14292;SDS011;62290;59.420;17.842;2022-08-05T15:12:08;4.47;;;4.07;;
14292;SDS011;62290;59.420;17.842;2022-08-05T15:14:42;4.93;;;4.43;;
14292;SDS011;62290;59.420;17.842;2022-08-05T15:17:16;5.00;;;4.50;;
14292;SDS011;62290;59.420;17.842;2022-08-05T15:20:05;5.30;;;4.75;;
14292;SDS011;62290;59.420;17.842;2022-08-05T15:22:44;5.85;;;5.10;;
14292;SDS011;62290;59.420;17.842;2022-08-05T15:25:20;6.50;;;5.30;;
14292;SDS011;62290;59.420;17.842;2022-08-05T15:28:10;5.35;;;4.85;;
14292;SDS011;62290;59.420;17.842;2022-08-05T15:30:41;6.28;;;5.45;;
14292;SDS011;62290;59.420;17.842;2022-08-05T15:33:11;6.53;;;5.90;;
14292;SDS011;62290;59.420;17.842;2022-08-05T15:36:00;5.93;;;5.32;;
14292;SDS011;62290;59.420;17.842;2022-08-05T15:38:29;6.25;;;4.80;;
14292;SDS011;62290;59.420;17.842;2022-08-05T15:41:06;5.70;;;4.95;;
14292;SDS011;62290;59.420;17.842;2022-08-05T15:43:51;5.30;;;4.80;;
14292;SDS011;62290;59.420;17.842;2022-08-05T15:46:20;5.03;;;4.55;;
14292;SDS011;62290;59.420;17.842;2022-08-05T15:48:50;5.10;;;4.43;;
14292;SDS011;62290;59.420;17.842;2022-08-05T15:51:27;5.05;;;4.55;;